sensor_id;sensor_type;location;lat;lon;timestamp;pressure;altitude;pressure_sealevel;temperature;humidity
22662;BME280;11497;52.222;21.246;2023-11-19T00:00:23;101034.63;;;-0.62;86.93
22662;BME280;11497;52.222;21.246;2023-11-19T00:03:11;101035.44;;;-0.63;86.88
22662;BME280;11497;52.222;21.246;2023-11-19T00:05:41;101040.59;;;-0.62;87.07
22662;BME280;11497;52.222;21.246;2023-11-19T00:08:09;101040.75;;;-0.59;86.87
22662;BME280;11497;52.222;21.246;2023-11-19T00:10:37;101038.22;;;-0.59;86.87
22662;BME280;11497;52.222;21.246;2023-11-19T00:13:05;101039.97;;;-0.58;86.76
22662;BME280;11497;52.222;21.246;2023-11-19T00:15:33;101043.38;;;-0.57;87.00
22662;BME280;11497;52.222;21.246;2023-11-19T00:18:00;101050.94;;;-0.57;87.28
22662;BME280;11497;52.222;21.246;2023-11-19T00:20:32;101040.94;;;-0.55;86.95
22662;BME280;11497;52.222;21.246;2023-11-19T00:23:00;101043.66;;;-0.52;86.87
22662;BME280;11497;52.222;21.246;2023-11-19T00:25:30;101037.00;;;-0.50;86.80
22662;BME280;11497;52.222;21.246;2023-11-19T00:27:58;101035.44;;;-0.48;86.67
22662;BME280;11497;52.222;21.246;2023-11-19T00:30:27;101028.75;;;-0.48;86.71
22662;BME280;11497;52.222;21.246;2023-11-19T00:32:55;101021.84;;;-0.50;86.75
22662;BME280;11497;52.222;21.246;2023-11-19T00:35:23;101016.69;;;-0.52;86.52
22662;BME280;11497;52.222;21.246;2023-11-19T00:37:51;101026.03;;;-0.51;86.38
22662;BME280;11497;52.222;21.246;2023-11-19T00:40:21;101028.66;;;-0.49;86.37
22662;BME280;11497;52.222;21.246;2023-11-19T00:42:50;101022.78;;;-0.48;86.28
22662;BME280;11497;52.222;21.246;2023-11-19T00:45:19;101012.53;;;-0.51;86.52
22662;BME280;11497;52.222;21.246;2023-11-19T00:47:47;100998.22;;;-0.51;86.51
22662;BME280;11497;52.222;21.246;2023-11-19T00:50:15;100998.31;;;-0.49;86.42
22662;BME280;11497;52.222;21.246;2023-11-19T00:52:43;100987.38;;;-0.48;86.76
22662;BME280;11497;52.222;21.246;2023-11-19T00:55:11;100990.91;;;-0.46;86.67
22662;BME280;11497;52.222;21.246;2023-11-19T00:57:40;100993.53;;;-0.45;86.34
22662;BME280;11497;52.222;21.246;2023-11-19T01:00:09;100991.75;;;-0.46;86.44
22662;BME280;11497;52.222;21.246;2023-11-19T01:02:47;100992.63;;;-0.45;86.61
22662;BME280;11497;52.222;21.246;2023-11-19T01:05:20;100990.19;;;-0.44;86.77
22662;BME280;11497;52.222;21.246;2023-11-19T01:07:52;100989.25;;;-0.46;86.67
22662;BME280;11497;52.222;21.246;2023-11-19T01:10:22;100983.41;;;-0.45;86.18
22662;BME280;11497;52.222;21.246;2023-11-19T01:12:51;100980.94;;;-0.43;86.67
22662;BME280;11497;52.222;21.246;2023-11-19T01:15:20;100980.16;;;-0.42;85.94
22662;BME280;11497;52.222;21.246;2023-11-19T01:17:48;100971.63;;;-0.44;86.31
22662;BME280;11497;52.222;21.246;2023-11-19T01:20:19;100962.28;;;-0.45;86.18
22662;BME280;11497;52.222;21.246;2023-11-19T01:22:48;100952.34;;;-0.42;86.34
22662;BME280;11497;52.222;21.246;2023-11-19T01:25:17;100945.53;;;-0.43;86.13
22662;BME280;11497;52.222;21.246;2023-11-19T01:27:45;100947.19;;;-0.44;86.04
22662;BME280;11497;52.222;21.246;2023-11-19T01:30:14;100949.53;;;-0.47;86.17
22662;BME280;11497;52.222;21.246;2023-11-19T01:32:41;100941.97;;;-0.47;86.30
22662;BME280;11497;52.222;21.246;2023-11-19T01:35:10;100947.81;;;-0.48;86.25
22662;BME280;11497;52.222;21.246;2023-11-19T01:37:38;100941.38;;;-0.43;86.28
22662;BME280;11497;52.222;21.246;2023-11-19T01:40:06;100940.47;;;-0.43;85.86
22662;BME280;11497;52.222;21.246;2023-11-19T01:42:39;100938.94;;;-0.41;85.74
22662;BME280;11497;52.222;21.246;2023-11-19T01:45:08;100939.88;;;-0.39;86.29
22662;BME280;11497;52.222;21.246;2023-11-19T01:47:37;100939.59;;;-0.44;86.07
22662;BME280;11497;52.222;21.246;2023-11-19T01:50:07;100943.72;;;-0.46;86.48
22662;BME280;11497;52.222;21.246;2023-11-19T01:52:36;100942.94;;;-0.45;85.94
22662;BME280;11497;52.222;21.246;2023-11-19T01:55:07;100927.59;;;-0.48;86.43
22662;BME280;11497;52.222;21.246;2023-11-19T01:57:37;100918.88;;;-0.53;86.33
22662;BME280;11497;52.222;21.246;2023-11-19T02:00:07;100913.91;;;-0.51;86.80
22662;BME280;11497;52.222;21.246;2023-11-19T02:02:44;100909.06;;;-0.47;86.72
22662;BME280;11497;52.222;21.246;2023-11-19T02:05:13;100902.97;;;-0.50;86.23
22662;BME280;11497;52.222;21.246;2023-11-19T02:07:41;100902.78;;;-0.53;86.29
22662;BME280;11497;52.222;21.246;2023-11-19T02:10:09;100896.88;;;-0.54;86.60
22662;BME280;11497;52.222;21.246;2023-11-19T02:12:42;100897.75;;;-0.53;86.22
22662;BME280;11497;52.222;21.246;2023-11-19T02:15:11;100895.16;;;-0.55;86.67
22662;BME280;11497;52.222;21.246;2023-11-19T02:17:39;100895.22;;;-0.53;86.75
22662;BME280;11497;52.222;21.246;2023-11-19T02:20:07;100896.97;;;-0.52;86.61
22662;BME280;11497;52.222;21.246;2023-11-19T02:22:37;100897.75;;;-0.53;86.94
22662;BME280;11497;52.222;21.246;2023-11-19T02:25:07;100887.56;;;-0.55;86.81
22662;BME280;11497;52.222;21.246;2023-11-19T02:28:00;100883.19;;;-0.58;86.85
22662;BME280;11497;52.222;21.246;2023-11-19T02:30:29;100889.81;;;-0.60;86.68
22662;BME280;11497;52.222;21.246;2023-11-19T02:32:57;100880.66;;;-0.58;87.15
22662;BME280;11497;52.222;21.246;2023-11-19T02:35:27;100878.22;;;-0.56;86.89
22662;BME280;11497;52.222;21.246;2023-11-19T02:37:55;100878.91;;;-0.59;86.69
22662;BME280;11497;52.222;21.246;2023-11-19T02:40:24;100874.75;;;-0.58;87.03
22662;BME280;11497;52.222;21.246;2023-11-19T02:42:55;100862.78;;;-0.61;87.17
22662;BME280;11497;52.222;21.246;2023-11-19T02:45:25;100860.34;;;-0.59;87.08
22662;BME280;11497;52.222;21.246;2023-11-19T02:47:55;100863.81;;;-0.57;87.20
22662;BME280;11497;52.222;21.246;2023-11-19T02:50:23;100862.88;;;-0.59;87.26
22662;BME280;11497;52.222;21.246;2023-11-19T02:52:55;100857.72;;;-0.61;87.44
22662;BME280;11497;52.222;21.246;2023-11-19T02:55:26;100849.47;;;-0.58;87.35
22662;BME280;11497;52.222;21.246;2023-11-19T02:57:58;100845.25;;;-0.58;87.60
22662;BME280;11497;52.222;21.246;2023-11-19T03:00:28;100840.13;;;-0.59;87.56
22662;BME280;11497;52.222;21.246;2023-11-19T03:03:04;100838.72;;;-0.54;87.99
22662;BME280;11497;52.222;21.246;2023-11-19T03:05:52;100835.41;;;-0.53;87.93
22662;BME280;11497;52.222;21.246;2023-11-19T03:08:20;100829.31;;;-0.57;87.63
22662;BME280;11497;52.222;21.246;2023-11-19T03:10:50;100832.72;;;-0.56;87.31
22662;BME280;11497;52.222;21.246;2023-11-19T03:13:18;100823.72;;;-0.51;87.65
22662;BME280;11497;52.222;21.246;2023-11-19T03:15:46;100816.81;;;-0.53;87.24
22662;BME280;11497;52.222;21.246;2023-11-19T03:18:14;100822.69;;;-0.54;87.49
22662;BME280;11497;52.222;21.246;2023-11-19T03:20:42;100820.94;;;-0.55;87.27
22662;BME280;11497;52.222;21.246;2023-11-19T03:23:10;100816.31;;;-0.48;87.19
22662;BME280;11497;52.222;21.246;2023-11-19T03:25:38;100815.50;;;-0.47;87.05
22662;BME280;11497;52.222;21.246;2023-11-19T03:28:06;100815.59;;;-0.45;87.27
22662;BME280;11497;52.222;21.246;2023-11-19T03:30:34;100814.56;;;-0.49;87.32
22662;BME280;11497;52.222;21.246;2023-11-19T03:33:02;100803.13;;;-0.42;87.24
22662;BME280;11497;52.222;21.246;2023-11-19T03:35:31;100791.25;;;-0.43;87.19
22662;BME280;11497;52.222;21.246;2023-11-19T03:38:00;100782.63;;;-0.47;87.39
22662;BME280;11497;52.222;21.246;2023-11-19T03:40:29;100776.88;;;-0.44;86.91
22662;BME280;11497;52.222;21.246;2023-11-19T03:42:57;100778.28;;;-0.49;86.63
22662;BME280;11497;52.222;21.246;2023-11-19T03:45:28;100779.88;;;-0.51;86.97
22662;BME280;11497;52.222;21.246;2023-11-19T03:47:56;100780.56;;;-0.54;87.16
22662;BME280;11497;52.222;21.246;2023-11-19T03:50:24;100778.13;;;-0.52;87.40
22662;BME280;11497;52.222;21.246;2023-11-19T03:52:52;100774.81;;;-0.51;87.42
22662;BME280;11497;52.222;21.246;2023-11-19T03:55:20;100774.09;;;-0.49;87.27
22662;BME280;11497;52.222;21.246;2023-11-19T03:57:48;100774.09;;;-0.49;87.99
22662;BME280;11497;52.222;21.246;2023-11-19T04:00:16;100774.19;;;-0.47;87.54
22662;BME280;11497;52.222;21.246;2023-11-19T04:02:45;100770.06;;;-0.45;87.58
22662;BME280;11497;52.222;21.246;2023-11-19T04:05:15;100758.31;;;-0.45;87.33
22662;BME280;11497;52.222;21.246;2023-11-19T04:07:42;100752.28;;;-0.47;87.41
22662;BME280;11497;52.222;21.246;2023-11-19T04:10:10;100750.38;;;-0.51;87.56
22662;BME280;11497;52.222;21.246;2023-11-19T04:12:38;100751.88;;;-0.54;87.55
22662;BME280;11497;52.222;21.246;2023-11-19T04:15:07;100746.75;;;-0.56;88.10
22662;BME280;11497;52.222;21.246;2023-11-19T04:17:35;100741.75;;;-0.54;87.84
22662;BME280;11497;52.222;21.246;2023-11-19T04:20:05;100740.97;;;-0.53;88.05
22662;BME280;11497;52.222;21.246;2023-11-19T04:22:33;100732.69;;;-0.51;88.13
22662;BME280;11497;52.222;21.246;2023-11-19T04:25:01;100723.59;;;-0.47;87.92
22662;BME280;11497;52.222;21.246;2023-11-19T04:27:29;100724.38;;;-0.48;88.15
22662;BME280;11497;52.222;21.246;2023-11-19T04:29:57;100718.53;;;-0.47;87.83
22662;BME280;11497;52.222;21.246;2023-11-19T04:32:25;100705.97;;;-0.46;87.86
22662;BME280;11497;52.222;21.246;2023-11-19T04:34:54;100707.09;;;-0.41;87.80
22662;BME280;11497;52.222;21.246;2023-11-19T04:37:22;100706.44;;;-0.36;87.62
22662;BME280;11497;52.222;21.246;2023-11-19T04:39:50;100701.09;;;-0.43;87.90
22662;BME280;11497;52.222;21.246;2023-11-19T04:42:19;100700.28;;;-0.42;87.35
22662;BME280;11497;52.222;21.246;2023-11-19T04:44:47;100695.59;;;-0.50;87.86
22662;BME280;11497;52.222;21.246;2023-11-19T04:47:15;100694.53;;;-0.39;87.76
22662;BME280;11497;52.222;21.246;2023-11-19T04:49:43;100684.63;;;-0.51;87.73
22662;BME280;11497;52.222;21.246;2023-11-19T04:52:11;100668.75;;;-0.48;88.38
22662;BME280;11497;52.222;21.246;2023-11-19T04:54:44;100659.59;;;-0.46;88.32
22662;BME280;11497;52.222;21.246;2023-11-19T04:57:12;100654.53;;;-0.46;88.89
22662;BME280;11497;52.222;21.246;2023-11-19T04:59:40;100656.19;;;-0.47;88.57
22662;BME280;11497;52.222;21.246;2023-11-19T05:02:09;100651.03;;;-0.48;88.91
22662;BME280;11497;52.222;21.246;2023-11-19T05:04:42;100650.44;;;-0.44;89.07
22662;BME280;11497;52.222;21.246;2023-11-19T05:07:10;100649.56;;;-0.45;88.74
22662;BME280;11497;52.222;21.246;2023-11-19T05:09:38;100650.63;;;-0.40;88.72
22662;BME280;11497;52.222;21.246;2023-11-19T05:12:06;100648.09;;;-0.40;88.64
22662;BME280;11497;52.222;21.246;2023-11-19T05:14:37;100656.44;;;-0.42;88.88
22662;BME280;11497;52.222;21.246;2023-11-19T05:17:05;100647.03;;;-0.45;89.13
22662;BME280;11497;52.222;21.246;2023-11-19T05:19:35;100644.34;;;-0.48;88.76
22662;BME280;11497;52.222;21.246;2023-11-19T05:22:03;100642.03;;;-0.43;89.34
22662;BME280;11497;52.222;21.246;2023-11-19T05:24:32;100634.44;;;-0.43;89.37
22662;BME280;11497;52.222;21.246;2023-11-19T05:26:59;100626.31;;;-0.38;88.96
22662;BME280;11497;52.222;21.246;2023-11-19T05:29:28;100626.84;;;-0.43;88.89
22662;BME280;11497;52.222;21.246;2023-11-19T05:31:56;100627.75;;;-0.43;89.35
22662;BME280;11497;52.222;21.246;2023-11-19T05:34:24;100622.91;;;-0.38;89.41
22662;BME280;11497;52.222;21.246;2023-11-19T05:36:52;100627.00;;;-0.40;88.89
22662;BME280;11497;52.222;21.246;2023-11-19T05:39:20;100629.47;;;-0.42;89.42
22662;BME280;11497;52.222;21.246;2023-11-19T05:41:49;100625.31;;;-0.41;89.11
22662;BME280;11497;52.222;21.246;2023-11-19T05:44:17;100627.59;;;-0.46;89.33
22662;BME280;11497;52.222;21.246;2023-11-19T05:46:46;100629.88;;;-0.34;89.11
22662;BME280;11497;52.222;21.246;2023-11-19T05:49:14;100632.88;;;-0.41;89.31
22662;BME280;11497;52.222;21.246;2023-11-19T05:51:42;100630.19;;;-0.44;89.37
22662;BME280;11497;52.222;21.246;2023-11-19T05:54:10;100628.59;;;-0.42;89.62
22662;BME280;11497;52.222;21.246;2023-11-19T05:56:38;100630.50;;;-0.38;89.27
22662;BME280;11497;52.222;21.246;2023-11-19T05:59:06;100628.22;;;-0.33;88.93
22662;BME280;11497;52.222;21.246;2023-11-19T06:01:43;100622.28;;;-0.34;89.39
22662;BME280;11497;52.222;21.246;2023-11-19T06:04:11;100622.97;;;-0.36;89.40
22662;BME280;11497;52.222;21.246;2023-11-19T06:06:39;100620.63;;;-0.33;89.49
22662;BME280;11497;52.222;21.246;2023-11-19T06:09:08;100620.28;;;-0.23;88.93
22662;BME280;11497;52.222;21.246;2023-11-19T06:11:40;100621.56;;;-0.31;88.94
22662;BME280;11497;52.222;21.246;2023-11-19T06:14:09;100622.75;;;-0.25;89.05
22662;BME280;11497;52.222;21.246;2023-11-19T06:16:36;100620.28;;;-0.23;88.81
22662;BME280;11497;52.222;21.246;2023-11-19T06:19:05;100611.94;;;-0.22;89.02
22662;BME280;11497;52.222;21.246;2023-11-19T06:21:33;100613.56;;;-0.23;88.47
22662;BME280;11497;52.222;21.246;2023-11-19T06:24:01;100605.28;;;-0.20;88.60
22662;BME280;11497;52.222;21.246;2023-11-19T06:26:29;100602.91;;;-0.17;88.42
22662;BME280;11497;52.222;21.246;2023-11-19T06:28:57;100609.16;;;-0.10;88.71
22662;BME280;11497;52.222;21.246;2023-11-19T06:31:24;100606.91;;;-0.04;87.41
22662;BME280;11497;52.222;21.246;2023-11-19T06:33:53;100608.81;;;-0.16;87.21
22662;BME280;11497;52.222;21.246;2023-11-19T06:36:21;100609.31;;;-0.24;87.45
22662;BME280;11497;52.222;21.246;2023-11-19T06:38:49;100603.59;;;-0.20;87.89
22662;BME280;11497;52.222;21.246;2023-11-19T06:41:17;100601.72;;;-0.24;87.64
22662;BME280;11497;52.222;21.246;2023-11-19T06:43:45;100599.28;;;-0.22;88.11
22662;BME280;11497;52.222;21.246;2023-11-19T06:46:17;100588.41;;;-0.20;88.35
22662;BME280;11497;52.222;21.246;2023-11-19T06:48:45;100582.75;;;-0.15;88.51
22662;BME280;11497;52.222;21.246;2023-11-19T06:51:14;100578.91;;;-0.07;88.52
22662;BME280;11497;52.222;21.246;2023-11-19T06:53:43;100574.31;;;0.02;88.13
22662;BME280;11497;52.222;21.246;2023-11-19T06:56:20;100564.19;;;0.02;86.03
22662;BME280;11497;52.222;21.246;2023-11-19T06:58:50;100567.66;;;0.04;86.05
22662;BME280;11497;52.222;21.246;2023-11-19T07:01:18;100552.97;;;-0.03;86.21
22662;BME280;11497;52.222;21.246;2023-11-19T07:03:47;100551.38;;;-0.01;86.31
22662;BME280;11497;52.222;21.246;2023-11-19T07:06:16;100558.66;;;-0.07;86.84
22662;BME280;11497;52.222;21.246;2023-11-19T07:08:44;100552.56;;;0.06;86.51
22662;BME280;11497;52.222;21.246;2023-11-19T07:11:13;100546.56;;;0.04;86.29
22662;BME280;11497;52.222;21.246;2023-11-19T07:13:45;100542.94;;;-0.02;86.58
22662;BME280;11497;52.222;21.246;2023-11-19T07:16:15;100541.25;;;-0.01;86.95
22662;BME280;11497;52.222;21.246;2023-11-19T07:18:43;100543.72;;;0.15;85.70
22662;BME280;11497;52.222;21.246;2023-11-19T07:21:11;100540.47;;;0.00;85.78
22662;BME280;11497;52.222;21.246;2023-11-19T07:23:40;100538.06;;;0.03;86.42
22662;BME280;11497;52.222;21.246;2023-11-19T07:26:09;100538.22;;;0.06;86.81
22662;BME280;11497;52.222;21.246;2023-11-19T07:28:37;100533.91;;;0.04;86.28
22662;BME280;11497;52.222;21.246;2023-11-19T07:31:07;100528.09;;;0.06;86.48
22662;BME280;11497;52.222;21.246;2023-11-19T07:33:39;100533.75;;;0.18;85.96
22662;BME280;11497;52.222;21.246;2023-11-19T07:36:10;100523.97;;;0.08;84.82
22662;BME280;11497;52.222;21.246;2023-11-19T07:38:38;100522.34;;;0.09;85.34
22662;BME280;11497;52.222;21.246;2023-11-19T07:41:06;100523.03;;;0.06;85.96
22662;BME280;11497;52.222;21.246;2023-11-19T07:43:36;100519.28;;;0.16;85.52
22662;BME280;11497;52.222;21.246;2023-11-19T07:46:04;100512.94;;;0.24;85.80
22662;BME280;11497;52.222;21.246;2023-11-19T07:48:35;100516.03;;;0.36;84.62
22662;BME280;11497;52.222;21.246;2023-11-19T07:51:03;100506.69;;;0.35;84.75
22662;BME280;11497;52.222;21.246;2023-11-19T07:53:32;100502.78;;;0.42;84.46
22662;BME280;11497;52.222;21.246;2023-11-19T07:56:02;100503.19;;;0.51;84.51
22662;BME280;11497;52.222;21.246;2023-11-19T07:58:30;100503.78;;;0.64;84.53
22662;BME280;11497;52.222;21.246;2023-11-19T08:00:58;100499.78;;;0.69;84.57
22662;BME280;11497;52.222;21.246;2023-11-19T08:03:26;100500.78;;;0.72;84.06
22662;BME280;11497;52.222;21.246;2023-11-19T08:05:58;100494.25;;;0.78;84.04
22662;BME280;11497;52.222;21.246;2023-11-19T08:08:26;100492.41;;;0.93;83.47
22662;BME280;11497;52.222;21.246;2023-11-19T08:10:54;100489.25;;;0.99;82.96
22662;BME280;11497;52.222;21.246;2023-11-19T08:13:24;100483.38;;;1.00;82.41
22662;BME280;11497;52.222;21.246;2023-11-19T08:15:53;100478.56;;;1.06;82.50
22662;BME280;11497;52.222;21.246;2023-11-19T08:18:21;100469.69;;;1.16;81.56
22662;BME280;11497;52.222;21.246;2023-11-19T08:20:48;100470.94;;;1.25;80.15
22662;BME280;11497;52.222;21.246;2023-11-19T08:23:20;100469.88;;;1.20;81.16
22662;BME280;11497;52.222;21.246;2023-11-19T08:25:48;100467.25;;;1.38;81.11
22662;BME280;11497;52.222;21.246;2023-11-19T08:28:17;100457.97;;;1.39;80.64
22662;BME280;11497;52.222;21.246;2023-11-19T08:30:45;100457.63;;;1.50;80.95
22662;BME280;11497;52.222;21.246;2023-11-19T08:33:13;100457.69;;;1.73;80.24
22662;BME280;11497;52.222;21.246;2023-11-19T08:35:42;100448.34;;;1.72;79.21
22662;BME280;11497;52.222;21.246;2023-11-19T08:38:10;100451.19;;;1.80;77.76
22662;BME280;11497;52.222;21.246;2023-11-19T08:40:38;100445.25;;;1.79;78.38
22662;BME280;11497;52.222;21.246;2023-11-19T08:43:06;100444.88;;;1.91;78.62
22662;BME280;11497;52.222;21.246;2023-11-19T08:45:34;100432.72;;;2.05;78.03
22662;BME280;11497;52.222;21.246;2023-11-19T08:48:02;100428.78;;;2.13;77.26
22662;BME280;11497;52.222;21.246;2023-11-19T08:50:30;100424.91;;;2.23;75.84
22662;BME280;11497;52.222;21.246;2023-11-19T08:52:58;100430.44;;;2.13;76.71
22662;BME280;11497;52.222;21.246;2023-11-19T08:55:26;100424.84;;;2.21;76.05
22662;BME280;11497;52.222;21.246;2023-11-19T08:57:54;100419.16;;;2.27;75.42
22662;BME280;11497;52.222;21.246;2023-11-19T09:00:22;100419.88;;;2.24;75.42
22662;BME280;11497;52.222;21.246;2023-11-19T09:02:50;100417.78;;;2.37;74.72
22662;BME280;11497;52.222;21.246;2023-11-19T09:05:18;100412.53;;;2.08;75.83
22662;BME280;11497;52.222;21.246;2023-11-19T09:07:47;100414.63;;;2.20;76.29
22662;BME280;11497;52.222;21.246;2023-11-19T09:10:16;100412.66;;;2.13;75.88
22662;BME280;11497;52.222;21.246;2023-11-19T09:12:44;100408.56;;;1.94;76.38
22662;BME280;11497;52.222;21.246;2023-11-19T09:15:12;100398.41;;;1.94;76.49
22662;BME280;11497;52.222;21.246;2023-11-19T09:17:41;100400.53;;;1.83;76.18
22662;BME280;11497;52.222;21.246;2023-11-19T09:20:09;100404.66;;;1.58;77.56
22662;BME280;11497;52.222;21.246;2023-11-19T09:22:40;100406.75;;;1.47;78.34
22662;BME280;11497;52.222;21.246;2023-11-19T09:25:08;100398.03;;;1.41;78.99
22662;BME280;11497;52.222;21.246;2023-11-19T09:27:37;100397.22;;;1.42;78.52
22662;BME280;11497;52.222;21.246;2023-11-19T09:30:05;100393.03;;;1.63;78.84
22662;BME280;11497;52.222;21.246;2023-11-19T09:32:33;100394.56;;;1.60;78.51
22662;BME280;11497;52.222;21.246;2023-11-19T09:35:01;100385.22;;;1.59;79.03
22662;BME280;11497;52.222;21.246;2023-11-19T09:37:30;100378.41;;;1.58;79.44
22662;BME280;11497;52.222;21.246;2023-11-19T09:39:58;100366.69;;;1.61;78.42
22662;BME280;11497;52.222;21.246;2023-11-19T09:42:26;100362.59;;;1.63;77.60
22662;BME280;11497;52.222;21.246;2023-11-19T09:44:55;100353.63;;;1.73;78.55
22662;BME280;11497;52.222;21.246;2023-11-19T09:47:24;100354.47;;;1.95;78.92
22662;BME280;11497;52.222;21.246;2023-11-19T09:49:53;100341.16;;;2.24;76.88
22662;BME280;11497;52.222;21.246;2023-11-19T09:52:25;100350.56;;;2.27;77.08
22662;BME280;11497;52.222;21.246;2023-11-19T09:54:53;100337.94;;;2.06;76.43
22662;BME280;11497;52.222;21.246;2023-11-19T09:57:21;100330.56;;;1.90;77.16
22662;BME280;11497;52.222;21.246;2023-11-19T09:59:50;100326.22;;;1.87;76.18
22662;BME280;11497;52.222;21.246;2023-11-19T10:02:19;100321.75;;;1.80;77.23
22662;BME280;11497;52.222;21.246;2023-11-19T10:04:49;100319.84;;;1.74;76.75
22662;BME280;11497;52.222;21.246;2023-11-19T10:07:17;100322.84;;;1.64;77.54
22662;BME280;11497;52.222;21.246;2023-11-19T10:09:47;100319.19;;;1.80;77.11
22662;BME280;11497;52.222;21.246;2023-11-19T10:12:15;100313.41;;;1.61;77.42
22662;BME280;11497;52.222;21.246;2023-11-19T10:14:44;100312.56;;;1.61;77.83
22662;BME280;11497;52.222;21.246;2023-11-19T10:17:13;100314.72;;;1.73;77.02
22662;BME280;11497;52.222;21.246;2023-11-19T10:19:41;100309.56;;;1.48;77.27
22662;BME280;11497;52.222;21.246;2023-11-19T10:22:09;100307.41;;;1.37;78.37
22662;BME280;11497;52.222;21.246;2023-11-19T10:24:38;100300.59;;;1.36;79.23
22662;BME280;11497;52.222;21.246;2023-11-19T10:27:15;100286.53;;;1.44;78.64
22662;BME280;11497;52.222;21.246;2023-11-19T10:29:47;100286.19;;;1.35;79.22
22662;BME280;11497;52.222;21.246;2023-11-19T10:32:15;100292.47;;;1.44;78.88
22662;BME280;11497;52.222;21.246;2023-11-19T10:35:05;100281.06;;;1.56;79.00
22662;BME280;11497;52.222;21.246;2023-11-19T10:37:34;100272.75;;;1.37;78.82
22662;BME280;11497;52.222;21.246;2023-11-19T10:40:06;100266.63;;;1.32;79.94
22662;BME280;11497;52.222;21.246;2023-11-19T10:42:34;100266.25;;;1.44;79.46
22662;BME280;11497;52.222;21.246;2023-11-19T10:45:02;100259.91;;;1.33;79.75
22662;BME280;11497;52.222;21.246;2023-11-19T10:47:30;100259.34;;;1.40;79.24
22662;BME280;11497;52.222;21.246;2023-11-19T10:50:02;100261.88;;;1.40;79.72
22662;BME280;11497;52.222;21.246;2023-11-19T10:52:30;100247.91;;;1.51;79.90
22662;BME280;11497;52.222;21.246;2023-11-19T10:55:00;100252.88;;;1.71;78.67
22662;BME280;11497;52.222;21.246;2023-11-19T10:57:32;100244.19;;;1.64;78.37
22662;BME280;11497;52.222;21.246;2023-11-19T11:00:05;100234.69;;;1.58;78.49
22662;BME280;11497;52.222;21.246;2023-11-19T11:02:41;100236.13;;;1.52;78.89
22662;BME280;11497;52.222;21.246;2023-11-19T11:05:13;100237.78;;;1.51;78.42
22662;BME280;11497;52.222;21.246;2023-11-19T11:07:43;100222.66;;;1.54;78.57
22662;BME280;11497;52.222;21.246;2023-11-19T11:10:12;100216.81;;;1.33;79.27
22662;BME280;11497;52.222;21.246;2023-11-19T11:12:41;100211.50;;;1.26;80.03
22662;BME280;11497;52.222;21.246;2023-11-19T11:15:12;100201.59;;;1.33;79.34
22662;BME280;11497;52.222;21.246;2023-11-19T11:17:41;100198.16;;;1.32;79.66
22662;BME280;11497;52.222;21.246;2023-11-19T11:20:10;100192.19;;;1.30;79.86
22662;BME280;11497;52.222;21.246;2023-11-19T11:39:36;100152.25;;;1.24;80.24
22662;BME280;11497;52.222;21.246;2023-11-19T11:45:11;100147.72;;;1.16;79.95
22662;BME280;11497;52.222;21.246;2023-11-19T11:50:18;100141.66;;;1.12;80.22
22662;BME280;11497;52.222;21.246;2023-11-19T11:55:37;100133.41;;;0.95;80.78
22662;BME280;11497;52.222;21.246;2023-11-19T11:58:08;100125.81;;;0.95;81.67
22662;BME280;11497;52.222;21.246;2023-11-19T12:00:41;100119.25;;;1.00;81.59
22662;BME280;11497;52.222;21.246;2023-11-19T12:03:10;100112.09;;;0.90;81.74
22662;BME280;11497;52.222;21.246;2023-11-19T12:05:42;100110.03;;;1.02;81.45
22662;BME280;11497;52.222;21.246;2023-11-19T12:08:15;100110.63;;;0.95;82.29
22662;BME280;11497;52.222;21.246;2023-11-19T12:10:54;100100.47;;;0.95;81.82
22662;BME280;11497;52.222;21.246;2023-11-19T12:13:46;100094.06;;;1.05;81.76
22662;BME280;11497;52.222;21.246;2023-11-19T12:16:15;100083.53;;;0.94;81.56
22662;BME280;11497;52.222;21.246;2023-11-19T12:18:43;100084.97;;;0.87;81.74
22662;BME280;11497;52.222;21.246;2023-11-19T12:21:30;100080.03;;;0.90;82.07
22662;BME280;11497;52.222;21.246;2023-11-19T12:23:59;100065.84;;;0.96;82.14
22662;BME280;11497;52.222;21.246;2023-11-19T12:26:37;100067.41;;;0.92;82.08
22662;BME280;11497;52.222;21.246;2023-11-19T12:29:05;100060.84;;;0.97;82.35
22662;BME280;11497;52.222;21.246;2023-11-19T12:31:36;100064.81;;;0.90;82.70
22662;BME280;11497;52.222;21.246;2023-11-19T12:34:08;100049.59;;;0.90;82.88
22662;BME280;11497;52.222;21.246;2023-11-19T12:36:41;100052.66;;;1.04;82.32
22662;BME280;11497;52.222;21.246;2023-11-19T12:39:10;100051.97;;;1.08;82.46
22662;BME280;11497;52.222;21.246;2023-11-19T12:41:51;100044.50;;;1.13;81.94
22662;BME280;11497;52.222;21.246;2023-11-19T12:44:19;100037.59;;;1.09;82.15
22662;BME280;11497;52.222;21.246;2023-11-19T12:47:03;100032.38;;;1.28;81.26
22662;BME280;11497;52.222;21.246;2023-11-19T12:49:31;100030.19;;;1.15;80.84
22662;BME280;11497;52.222;21.246;2023-11-19T12:51:59;100030.25;;;1.17;81.37
22662;BME280;11497;52.222;21.246;2023-11-19T12:54:35;100025.09;;;1.14;81.59
22662;BME280;11497;52.222;21.246;2023-11-19T12:57:05;100028.63;;;1.17;82.20
22662;BME280;11497;52.222;21.246;2023-11-19T12:59:33;100020.94;;;1.16;81.34
22662;BME280;11497;52.222;21.246;2023-11-19T13:02:01;100026.75;;;1.13;82.23
22662;BME280;11497;52.222;21.246;2023-11-19T13:04:33;100025.59;;;1.03;82.09
22662;BME280;11497;52.222;21.246;2023-11-19T13:07:02;100020.47;;;1.02;82.24
22662;BME280;11497;52.222;21.246;2023-11-19T13:09:33;100011.88;;;0.98;82.35
22662;BME280;11497;52.222;21.246;2023-11-19T13:12:15;100015.22;;;0.97;81.88
22662;BME280;11497;52.222;21.246;2023-11-19T13:14:44;100016.41;;;1.07;81.71
22662;BME280;11497;52.222;21.246;2023-11-19T13:17:15;100014.44;;;0.98;81.38
22662;BME280;11497;52.222;21.246;2023-11-19T13:19:43;100002.22;;;0.88;81.11
22662;BME280;11497;52.222;21.246;2023-11-19T13:22:11;100007.22;;;0.86;82.21